Terminal Aerodrome Forecast
Issued by NWS Quad Cities IA IL

Home | Current Version | Previous Version | Text Only | Print | Product List | Glossary On
Versions: 1 2 3 4 5 6 7 8 9 10 11 12 13 14 15 16 17 18 19 20 21 22 23
000
FTUS43 KDVN 280500
TAFDBQ
TAF
KDBQ 280520Z 2806/2906 06007KT P6SM FEW070 BKN120
     FM281200 09004KT P6SM VCSH SCT015 BKN040 OVC070
     FM281400 11005KT 3SM TSRA BR BKN012CB OVC030
     FM282000 13008KT P6SM VCTS SCT020 BKN035CB PROB30 2820/2902 3SM
      TSRA BKN020CB OVC030=

USA.gov is the U.S. government's official web portal to all federal, state and local government web resources and services.